Terminal Aerodrome Forecast
Issued by NWS Pocatello, ID

Home | Current Version | Previous Version | Text Only | Print | Product List | Glossary On
Versions: 1 2 3 4 5 6 7 8 9 10 11 12 13 14 15 16
000
FTUS45 KPIH 201141
TAFIDA
TAF
KIDA 201141Z 2012/2112 VRB05KT P6SM SCT070 BKN100 WS015/22030KT
     FM201500 VRB05KT P6SM VCSH SCT035 BKN050 OVC070
     FM201800 20015G25KT 5SM -SHSN BR SCT020 BKN030 OVC050
     FM202100 20012G22KT 6SM -SHRASN BR SCT015 BKN025 OVC035
     FM210200 21010KT P6SM VCSH SCT020 OVC025=

USA.gov is the U.S. government's official web portal to all federal, state and local government web resources and services.